Time;durP1;ratioP1;P1;durP2;ratioP2;P2;SDS_P1;SDS_P2;PMS_P1;PMS_P2;Temp;Humidity;BMP_temperature;BMP_pressure;BME280_temperature;BME280_humidity;BME280_pressure;Samples;Min_cycle;Max_cycle;Signal;HPM_P1;HPM_P2
2022/08/19 00:01:52;;;;;;;6.42;3.02;;;;;;;21.01;68.74;99193.90;1782743;80;21143;-74
2022/08/19 00:04:23;;;;;;;8.88;4.35;;;;;;;20.97;68.85;99187.96;1782611;80;21071;-75
2022/08/19 00:06:49;;;;;;;4.90;3.12;;;;;;;20.95;69.11;99183.73;1783267;80;21059;-75
2022/08/19 00:09:17;;;;;;;7.83;2.90;;;;;;;20.93;69.17;99180.31;1782718;80;20993;-74
2022/08/19 00:11:44;;;;;;;8.98;3.20;;;;;;;20.87;69.24;99188.36;1783028;80;21158;-75
2022/08/19 00:14:13;;;;;;;6.70;2.72;;;;;;;20.83;69.50;99188.73;1782769;80;21200;-75
2022/08/19 00:16:39;;;;;;;8.95;3.27;;;;;;;20.82;69.67;99197.26;1782676;80;21575;-75
2022/08/19 00:19:07;;;;;;;8.83;3.00;;;;;;;20.81;69.83;99190.20;1782674;80;21032;-75
2022/08/19 00:21:38;;;;;;;8.40;3.25;;;;;;;20.81;70.12;99190.70;1782558;80;21067;-75
2022/08/19 00:24:03;;;;;;;6.72;2.75;;;;;;;20.78;70.12;99195.33;1782654;80;21065;-75
2022/08/19 00:26:30;;;;;;;6.97;3.08;;;;;;;20.75;70.30;99190.23;1782971;80;21547;-75
2022/08/19 00:28:56;;;;;;;8.03;3.33;;;;;;;20.73;70.32;99192.19;1782848;80;21043;-74
2022/08/19 00:31:24;;;;;;;5.60;2.98;;;;;;;20.72;70.29;99186.96;1780642;80;21075;-75
2022/08/19 00:33:51;;;;;;;6.50;3.27;;;;;;;20.68;70.32;99189.05;1725366;83;21072;-75
2022/08/19 00:36:19;;;;;;;6.62;3.25;;;;;;;20.67;70.60;99187.33;1727606;83;21086;-74
2022/08/19 00:38:46;;;;;;;7.28;3.35;;;;;;;20.67;70.60;99189.16;1727261;83;21237;-74
2022/08/19 00:41:15;;;;;;;9.75;3.37;;;;;;;20.64;70.69;99180.89;1727086;83;21062;-74
2022/08/19 00:43:41;;;;;;;9.68;3.72;;;;;;;20.61;70.93;99183.81;1727447;83;21577;-75
2022/08/19 00:46:08;;;;;;;6.05;3.30;;;;;;;20.58;70.98;99182.72;1727172;83;21518;-75
2022/08/19 00:48:36;;;;;;;10.78;3.90;;;;;;;20.56;71.06;99194.00;1727835;83;21590;-75
2022/08/19 00:51:03;;;;;;;5.15;3.00;;;;;;;20.53;71.12;99192.94;1727306;83;21886;-74
2022/08/19 00:53:31;;;;;;;5.70;3.25;;;;;;;20.52;71.27;99197.91;1680914;81;21675;-75
2022/08/19 00:55:59;;;;;;;10.13;3.42;;;;;;;20.51;71.29;99198.88;1757521;81;21484;-74
2022/08/19 00:58:29;;;;;;;3.90;3.08;;;;;;;20.47;71.54;99204.11;1757412;81;21111;-75
2022/08/19 01:00:55;;;;;;;13.22;3.62;;;;;;;20.44;71.90;99206.53;1757906;81;21104;-74
2022/08/19 01:03:22;;;;;;;7.72;3.75;;;;;;;20.43;71.97;99212.03;1757471;81;21208;-74
2022/08/19 01:05:50;;;;;;;15.32;3.65;;;;;;;20.39;71.95;99212.73;1757381;80;21146;-75
2022/08/19 01:08:18;;;;;;;9.53;3.30;;;;;;;20.34;71.99;99210.45;1757182;81;21071;-75
2022/08/19 01:10:52;;;;;;;6.78;3.40;;;;;;;20.33;72.20;99207.41;1757752;81;21048;-75
2022/08/19 01:13:22;;;;;;;12.20;3.55;;;;;;;20.32;72.23;99209.70;1756384;81;21103;-75
2022/08/19 01:15:54;;;;;;;8.08;3.40;;;;;;;20.29;72.31;99207.30;1757757;81;21969;-75
2022/08/19 01:18:21;;;;;;;11.22;4.15;;;;;;;20.27;72.24;99212.39;1757157;81;21531;-75
2022/08/19 01:20:47;;;;;;;10.10;3.30;;;;;;;20.25;72.32;99213.00;1757435;80;21064;-75
2022/08/19 01:23:14;;;;;;;11.88;3.62;;;;;;;20.22;72.30;99208.74;1757337;80;21154;-75
2022/08/19 01:25:51;;;;;;;10.75;3.33;;;;;;;20.20;72.45;99205.34;1723826;81;21035;-75
2022/08/19 01:28:25;;;;;;;7.05;3.60;;;;;;;20.20;72.46;99200.01;1757374;81;21110;-75
2022/08/19 01:30:53;;;;;;;5.42;3.52;;;;;;;20.18;72.52;99201.95;1761064;80;21566;-75
2022/08/19 01:33:20;;;;;;;6.78;3.47;;;;;;;20.14;72.70;99200.02;1757389;81;21554;-75
2022/08/19 01:35:51;;;;;;;5.78;4.10;;;;;;;20.09;72.87;99196.00;1757555;81;21887;-75
2022/08/19 01:38:26;;;;;;;10.50;3.77;;;;;;;20.04;73.08;99201.23;1757316;81;21016;-75
2022/08/19 01:40:52;;;;;;;8.38;3.67;;;;;;;20.00;73.25;99197.58;1757382;81;21244;-75
2022/08/19 01:43:19;;;;;;;8.45;3.72;;;;;;;19.97;73.44;99196.48;1757484;81;21128;-75
2022/08/19 01:45:47;;;;;;;6.62;3.80;;;;;;;19.96;73.44;99188.97;1757272;81;21176;-75
2022/08/19 01:48:13;;;;;;;13.95;3.77;;;;;;;19.95;73.64;99187.25;1757488;81;21626;-75
2022/08/19 01:50:40;;;;;;;6.42;4.00;;;;;;;19.95;73.72;99196.60;1757657;81;21080;-75
2022/08/19 01:53:09;;;;;;;11.38;3.62;;;;;;;19.94;73.98;99191.38;1757481;81;21135;-74
2022/08/19 01:55:38;;;;;;;9.35;3.90;;;;;;;19.91;73.85;99187.14;1765799;81;21519;-75
2022/08/19 01:58:05;;;;;;;6.30;3.67;;;;;;;19.90;73.93;99181.43;1765833;81;21499;-75
2022/08/19 02:00:32;;;;;;;11.80;4.78;;;;;;;19.89;73.86;99181.08;1765598;81;21079;-75
2022/08/19 02:03:00;;;;;;;11.30;3.60;;;;;;;19.85;74.08;99175.60;1765850;81;21098;-75
2022/08/19 02:05:28;;;;;;;7.37;4.03;;;;;;;19.81;74.29;99180.83;1766008;80;21535;-75
2022/08/19 02:07:57;;;;;;;13.65;3.77;;;;;;;19.76;74.41;99176.34;1765657;81;21095;-75
2022/08/19 02:10:25;;;;;;;7.45;3.37;;;;;;;19.73;74.58;99175.20;1784582;80;21036;-75
2022/08/19 02:12:52;;;;;;;8.45;4.00;;;;;;;19.72;74.73;99185.05;1784585;80;21012;-75
2022/08/19 02:15:19;;;;;;;12.50;4.00;;;;;;;19.72;74.91;99182.38;1784399;80;21048;-75
2022/08/19 02:17:46;;;;;;;9.93;4.00;;;;;;;19.70;74.85;99178.11;1784725;80;21057;-74
2022/08/19 02:20:13;;;;;;;10.72;4.17;;;;;;;19.70;74.93;99187.45;1784567;80;21025;-74
2022/08/19 02:22:42;;;;;;;8.45;4.17;;;;;;;19.66;75.02;99190.35;1784572;80;21554;-75
2022/08/19 02:25:12;;;;;;;7.30;3.87;;;;;;;19.60;75.02;99189.52;1784295;80;21083;-75
2022/08/19 02:27:39;;;;;;;10.03;4.17;;;;;;;19.59;75.19;99189.63;1771903;80;21109;-75
2022/08/19 02:30:09;;;;;;;11.57;4.28;;;;;;;19.60;75.34;99197.52;1767055;81;21028;-75
2022/08/19 02:32:35;;;;;;;5.90;3.75;;;;;;;19.59;75.40;99192.30;1766896;80;21549;-75
2022/08/19 02:35:03;;;;;;;6.55;4.03;;;;;;;19.57;75.48;99196.88;1767301;81;21062;-75
2022/08/19 02:40:14;;;;;;;11.25;3.90;;;;;;;19.48;75.63;99191.31;1767023;81;21561;-75
2022/08/19 02:42:42;;;;;;;6.15;3.80;;;;;;;19.47;75.76;99199.43;1767048;81;21865;-76
2022/08/19 02:45:09;;;;;;;7.55;4.47;;;;;;;19.44;75.94;99195.66;1767159;80;21593;-75
2022/08/19 02:47:38;;;;;;;7.00;3.85;;;;;;;19.44;76.21;99198.33;1767018;81;21085;-74
2022/08/19 02:50:05;;;;;;;8.83;4.17;;;;;;;19.41;76.36;99195.89;1767039;80;20994;-74
2022/08/19 02:52:33;;;;;;;6.80;3.90;;;;;;;19.39;76.34;99199.16;1766664;81;21711;-75
2022/08/19 02:55:00;;;;;;;10.55;4.03;;;;;;;19.39;76.41;99200.50;1756100;79;21491;-75
2022/08/19 02:57:27;;;;;;;11.12;4.05;;;;;;;19.37;76.33;99205.11;1750987;81;21013;-74
2022/08/19 02:59:53;;;;;;;5.83;4.00;;;;;;;19.36;76.56;99210.06;1802050;79;21094;-75
2022/08/19 03:02:20;;;;;;;11.60;3.87;;;;;;;19.31;76.76;99205.91;1802264;79;21023;-75
2022/08/19 03:04:46;;;;;;;5.22;3.70;;;;;;;19.30;76.74;99212.23;1802095;79;21000;-75
2022/08/19 03:07:14;;;;;;;8.78;3.85;;;;;;;19.29;76.81;99205.19;1801910;79;21309;-75
2022/08/19 03:09:42;;;;;;;8.03;3.95;;;;;;;19.29;76.91;99210.52;1801859;79;21033;-75
2022/08/19 03:12:09;;;;;;;11.22;4.20;;;;;;;19.27;77.04;99210.28;1802058;79;21106;-74
2022/08/19 03:14:35;;;;;;;11.00;4.00;;;;;;;19.24;77.27;99211.35;1801975;79;21094;-75
2022/08/19 03:17:03;;;;;;;8.03;3.95;;;;;;;19.16;77.40;99205.74;1802302;79;21636;-74
2022/08/19 03:19:29;;;;;;;6.37;4.08;;;;;;;19.14;77.46;99211.68;1801970;79;21534;-75
2022/08/19 03:21:56;;;;;;;12.68;4.20;;;;;;;19.16;77.62;99217.74;1802223;79;21081;-75
2022/08/19 03:24:22;;;;;;;9.70;4.42;;;;;;;19.17;77.73;99221.28;1801838;79;20997;-75
2022/08/19 03:26:55;;;;;;;11.25;4.10;;;;;;;19.16;77.75;99226.23;1802053;79;21039;-75
2022/08/19 03:29:21;;;;;;;7.37;4.17;;;;;;;19.14;77.80;99223.68;1801792;79;21574;-74
2022/08/19 03:31:47;;;;;;;9.40;4.17;;;;;;;19.17;77.92;99220.79;1802313;79;21157;-75
2022/08/19 03:34:18;;;;;;;8.28;3.92;;;;;;;19.20;77.79;99216.56;1817169;78;21021;-75
2022/08/19 03:36:45;;;;;;;7.28;4.00;;;;;;;19.21;77.83;99218.25;1821267;78;20966;-75
2022/08/19 03:39:11;;;;;;;10.63;4.58;;;;;;;19.24;77.90;99217.18;1820926;78;21065;-75
2022/08/19 03:41:41;;;;;;;7.90;4.05;;;;;;;19.25;77.81;99221.06;1821158;78;22057;-75
2022/08/19 03:44:08;;;;;;;8.05;3.80;;;;;;;19.28;77.74;99219.51;1821345;78;21036;-76
2022/08/19 03:46:36;;;;;;;12.33;4.53;;;;;;;19.32;77.58;99229.45;1821194;78;21001;-75
2022/08/19 03:49:06;;;;;;;13.45;4.40;;;;;;;19.35;77.57;99229.69;1821420;78;21030;-75
2022/08/19 03:51:37;;;;;;;12.10;3.90;;;;;;;19.34;77.44;99236.85;1820899;78;21069;-75
2022/08/19 03:54:06;;;;;;;7.70;4.12;;;;;;;19.34;77.52;99238.69;1820773;78;20974;-76
2022/08/19 03:56:35;;;;;;;10.45;3.90;;;;;;;19.31;77.53;99236.59;1792251;80;21082;-75
2022/08/19 03:59:02;;;;;;;9.83;4.22;;;;;;;19.36;77.56;99242.08;1815682;78;23016;-75
2022/08/19 04:01:29;;;;;;;5.85;3.47;;;;;;;19.38;77.37;99243.64;1792340;80;21065;-75
2022/08/19 04:03:56;;;;;;;10.65;3.85;;;;;;;19.41;77.39;99239.91;1815510;79;20991;-75
2022/08/19 04:06:26;;;;;;;7.45;4.05;;;;;;;19.44;77.35;99239.19;1792517;80;21038;-75
2022/08/19 04:08:54;;;;;;;5.53;3.90;;;;;;;19.48;77.18;99233.13;1815422;79;21106;-75
2022/08/19 04:11:25;;;;;;;13.95;4.15;;;;;;;19.53;76.85;99226.12;1792423;80;21411;-75
2022/08/19 04:13:52;;;;;;;14.00;4.30;;;;;;;19.58;76.78;99236.80;1815706;79;21064;-75
2022/08/19 04:16:21;;;;;;;8.73;3.65;;;;;;;19.59;76.51;99233.17;1792200;80;21046;-75
2022/08/19 04:18:48;;;;;;;5.35;3.50;;;;;;;19.60;76.46;99233.55;1815242;79;20951;-75
2022/08/19 04:21:22;;;;;;;8.68;4.10;;;;;;;19.63;76.26;99236.45;1783326;80;21128;-76
2022/08/19 04:23:48;;;;;;;9.03;4.05;;;;;;;19.65;76.29;99244.72;1815711;79;21027;-75
2022/08/19 04:26:20;;;;;;;11.40;4.35;;;;;;;19.70;76.22;99243.50;1792269;80;20987;-75
2022/08/19 04:28:47;;;;;;;11.18;3.45;;;;;;;19.75;76.06;99248.03;1814846;79;20987;-76
2022/08/19 04:31:16;;;;;;;9.30;3.47;;;;;;;19.77;75.93;99243.42;1800887;79;21047;-75
2022/08/19 04:33:42;;;;;;;9.78;3.92;;;;;;;19.81;75.86;99246.23;1800855;79;21106;-75
2022/08/19 04:36:21;;;;;;;8.18;3.75;;;;;;;19.84;75.66;99243.34;1800362;79;21039;-74
2022/08/19 04:38:49;;;;;;;11.28;3.92;;;;;;;19.88;75.38;99256.80;1800401;79;21051;-75
2022/08/19 04:44:02;;;;;;;11.12;3.90;;;;;;;19.92;75.10;99259.61;1800482;79;21050;-74
2022/08/19 04:46:31;;;;;;;7.10;3.75;;;;;;;19.97;74.91;99265.45;1800125;79;21546;-75
2022/08/19 04:49:01;;;;;;;7.05;3.55;;;;;;;20.01;74.67;99261.55;1800217;78;21593;-75
2022/08/19 04:51:30;;;;;;;11.18;4.28;;;;;;;20.05;74.25;99262.16;1800265;79;21039;-75
2022/08/19 04:53:57;;;;;;;15.85;4.33;;;;;;;20.11;74.24;99262.19;1800435;78;21043;-75
2022/08/19 04:56:26;;;;;;;15.23;3.85;;;;;;;20.15;74.26;99268.98;1792459;79;21119;-75
2022/08/19 04:58:52;;;;;;;10.20;3.65;;;;;;;20.20;74.08;99265.45;1791915;80;21547;-76
2022/08/19 05:01:22;;;;;;;6.28;3.15;;;;;;;20.25;73.57;99268.61;1791973;80;21589;-75
2022/08/19 05:03:48;;;;;;;11.03;3.67;;;;;;;20.26;73.27;99273.45;1791963;80;20969;-75
2022/08/19 05:06:16;;;;;;;16.00;4.20;;;;;;;20.30;73.25;99274.94;1792148;80;21561;-75
2022/08/19 05:08:44;;;;;;;11.38;3.85;;;;;;;20.34;73.16;99273.25;1792248;80;21082;-74
2022/08/19 05:11:23;;;;;;;17.75;3.70;;;;;;;20.40;72.99;99271.41;1791922;80;21143;-74
2022/08/19 05:13:52;;;;;;;9.38;3.67;;;;;;;20.45;72.65;99268.87;1792331;80;21098;-75
2022/08/19 05:16:20;;;;;;;10.63;3.90;;;;;;;20.48;72.68;99273.48;1791884;80;21075;-75
2022/08/19 05:24:19;;;;;;;4.97;3.37;;;;;;;20.60;72.52;99283.67;1792221;80;21186;-76
2022/08/19 05:26:48;;;;;;;14.10;3.95;;;;;;;20.66;72.21;99279.22;1791965;80;21037;-74
2022/08/19 05:29:17;;;;;;;10.25;3.87;;;;;;;20.70;71.78;99281.98;1791874;80;21552;-75
2022/08/19 05:31:44;;;;;;;9.13;3.80;;;;;;;20.72;71.83;99276.52;1791993;80;21035;-74
2022/08/19 05:34:10;;;;;;;12.82;3.65;;;;;;;20.75;71.72;99279.80;1793041;79;21424;-75
2022/08/19 05:36:42;;;;;;;19.23;4.17;;;;;;;20.80;71.56;99284.78;1804590;79;21074;-74
2022/08/19 05:39:14;;;;;;;8.40;3.25;;;;;;;20.87;71.47;99286.47;1804038;79;21028;-74
2022/08/19 05:41:44;;;;;;;18.48;3.55;;;;;;;20.88;71.43;99280.12;1804080;79;21037;-75
2022/08/19 05:44:10;;;;;;;9.35;3.80;;;;;;;20.96;71.62;99285.70;1802751;79;21068;-75
2022/08/19 05:46:37;;;;;;;11.68;4.17;;;;;;;21.03;71.33;99278.91;1804009;79;22230;-74
2022/08/19 05:49:06;;;;;;;7.87;3.67;;;;;;;21.11;71.17;99279.09;1804068;79;21135;-74
2022/08/19 05:51:34;;;;;;;12.65;4.35;;;;;;;21.18;71.19;99286.63;1803809;79;20992;-75
2022/08/19 05:54:02;;;;;;;12.15;3.75;;;;;;;21.23;70.95;99287.09;1804273;79;20988;-75
2022/08/19 05:56:30;;;;;;;10.85;3.30;;;;;;;21.24;70.34;99290.14;1811518;79;21055;-75
2022/08/19 05:58:58;;;;;;;8.43;3.90;;;;;;;21.25;70.53;99287.81;1812923;78;21122;-75
2022/08/19 06:01:25;;;;;;;10.72;3.80;;;;;;;21.32;70.74;99287.69;1820660;78;21124;-74
2022/08/19 06:03:52;;;;;;;7.78;3.92;;;;;;;21.38;70.66;99281.80;1790462;80;21097;-75
2022/08/19 06:06:19;;;;;;;11.10;4.25;;;;;;;21.46;70.31;99286.02;1812550;78;20965;-75
2022/08/19 06:08:50;;;;;;;9.40;3.60;;;;;;;21.55;69.88;99283.59;1812219;79;21028;-75
2022/08/19 06:11:22;;;;;;;8.80;3.75;;;;;;;21.63;70.16;99279.78;1821078;78;21067;-75
2022/08/19 06:13:52;;;;;;;8.28;3.47;;;;;;;21.71;69.65;99275.97;1820748;78;21215;-75
2022/08/19 06:16:21;;;;;;;11.73;4.03;;;;;;;21.77;69.17;99275.45;1821111;78;20978;-75
2022/08/19 06:18:51;;;;;;;13.58;3.20;;;;;;;21.85;69.18;99268.09;1820902;78;21511;-74
2022/08/19 06:21:22;;;;;;;14.35;3.75;;;;;;;21.94;69.22;99259.75;1821301;78;21043;-75
2022/08/19 06:23:50;;;;;;;17.85;4.00;;;;;;;22.00;68.61;99261.91;1816098;78;21016;-74
2022/08/19 06:26:18;;;;;;;15.03;3.83;;;;;;;22.08;68.51;99263.44;1821091;78;21269;-74
2022/08/19 06:28:50;;;;;;;14.80;3.87;;;;;;;22.16;68.46;99262.29;1820997;78;21053;-74
2022/08/19 06:31:20;;;;;;;11.63;3.75;;;;;;;22.24;67.87;99267.83;1819502;78;21704;-75
2022/08/19 06:33:47;;;;;;;9.40;3.52;;;;;;;22.30;67.66;99267.80;1759450;81;21069;-75
2022/08/19 06:36:36;;;;;;;11.70;3.70;;;;;;;22.38;67.39;99259.11;1812663;79;21431;-75
2022/08/19 06:39:06;;;;;;;9.35;3.42;;;;;;;22.47;66.79;99267.66;1812564;79;21113;-75
2022/08/19 06:41:38;;;;;;;13.83;3.98;;;;;;;22.54;67.22;99260.77;1759048;81;21105;-74
2022/08/19 06:44:05;;;;;;;7.45;3.70;;;;;;;22.62;66.63;99265.45;1812581;78;21059;-75
2022/08/19 06:46:32;;;;;;;12.78;3.87;;;;;;;22.69;66.67;99261.73;1812602;79;21028;-75
2022/08/19 06:48:58;;;;;;;14.25;3.95;;;;;;;22.76;66.50;99269.59;1759211;81;20993;-76
2022/08/19 06:51:25;;;;;;;17.25;3.47;;;;;;;22.85;66.77;99272.80;1759210;81;21869;-75
2022/08/19 06:53:53;;;;;;;8.90;3.40;;;;;;;22.94;66.44;99267.09;1758960;81;21603;-74
2022/08/19 06:56:36;;;;;;;14.33;3.85;;;;;;;22.99;65.96;99271.05;1751845;81;21611;-75
2022/08/19 06:58:55;;;;;;;8.63;3.42;;;;;;;23.08;64.89;99277.94;1745907;82;21513;-75
2022/08/19 07:01:22;;;;;;;13.45;3.60;;;;;;;23.07;64.85;99280.29;1749210;82;21074;-75
2022/08/19 07:03:48;;;;;;;12.53;3.37;;;;;;;23.09;64.74;99283.67;1748623;81;21169;-75
2022/08/19 07:06:17;;;;;;;13.10;4.03;;;;;;;23.15;64.69;99288.50;1748722;81;20932;-74
2022/08/19 07:08:46;;;;;;;9.35;3.25;;;;;;;23.21;65.03;99293.28;1748568;82;20992;-75
2022/08/19 07:11:15;;;;;;;23.07;3.72;;;;;;;23.24;64.12;99290.33;1748490;81;21016;-75
2022/08/19 07:13:43;;;;;;;11.70;3.87;;;;;;;23.29;64.09;99285.38;1748853;81;21137;-74
2022/08/19 07:16:13;;;;;;;8.90;3.75;;;;;;;23.36;64.09;99280.30;1748511;82;22006;-75
2022/08/19 07:18:40;;;;;;;16.25;3.70;;;;;;;23.45;63.75;99279.95;1748903;82;21070;-76
2022/08/19 07:21:12;;;;;;;11.45;3.35;;;;;;;23.50;63.95;99281.23;1748814;82;20988;-76
2022/08/19 07:23:39;;;;;;;13.88;3.55;;;;;;;23.56;63.59;99265.04;1748807;82;21219;-74
2022/08/19 07:26:09;;;;;;;9.40;3.67;;;;;;;23.63;63.18;99263.47;1749006;82;21137;-74
2022/08/19 07:28:38;;;;;;;15.40;3.65;;;;;;;23.69;63.70;99268.28;1748383;82;21257;-75
2022/08/19 07:31:07;;;;;;;9.98;3.52;;;;;;;23.80;63.29;99269.11;1748915;81;21534;-74
2022/08/19 07:33:36;;;;;;;13.15;3.33;;;;;;;23.85;62.74;99267.70;1748764;82;21053;-75
2022/08/19 07:36:05;;;;;;;15.08;3.52;;;;;;;23.91;62.57;99270.33;1749179;82;21126;-74
2022/08/19 07:38:33;;;;;;;12.25;3.65;;;;;;;23.98;62.65;99274.63;1748949;81;21505;-75
2022/08/19 07:41:00;;;;;;;14.55;3.45;;;;;;;24.03;61.96;99269.66;1747941;82;21891;-75
2022/08/19 07:43:27;;;;;;;10.15;3.00;;;;;;;24.06;61.47;99270.22;1753842;79;21506;-75
2022/08/19 07:45:56;;;;;;;12.05;3.58;;;;;;;24.11;61.49;99277.85;1746209;82;21051;-75
2022/08/19 07:48:28;;;;;;;9.58;3.55;;;;;;;24.17;61.30;99277.75;1715132;83;21071;-75
2022/08/19 07:50:56;;;;;;;14.53;3.80;;;;;;;24.24;61.15;99273.48;1750658;81;21581;-75
2022/08/19 07:53:23;;;;;;;11.05;3.60;;;;;;;24.29;61.62;99271.19;1752152;81;21803;-76
2022/08/19 07:55:50;;;;;;;11.90;3.65;;;;;;;24.35;61.43;99266.58;1751542;81;21550;-74
2022/08/19 07:58:20;;;;;;;9.28;3.95;;;;;;;24.44;61.46;99271.09;1739150;82;21071;-74
2022/08/19 08:00:48;;;;;;;8.28;3.10;;;;;;;24.53;61.95;99269.34;1738513;82;21024;-74
2022/08/19 08:03:17;;;;;;;21.30;3.58;;;;;;;24.64;61.31;99266.97;1738608;82;21530;-75
2022/08/19 08:11:04;;;;;;;6.70;3.30;;;;;;;24.82;59.41;99277.28;1739285;82;21028;-74
2022/08/19 08:13:34;;;;;;;11.90;4.20;;;;;;;24.89;59.47;99284.77;1738782;82;21102;-75
2022/08/19 08:16:01;;;;;;;13.08;3.35;;;;;;;24.93;58.85;99278.06;1738557;82;21043;-75
2022/08/19 08:18:28;;;;;;;11.83;3.45;;;;;;;24.98;59.83;99285.19;1738579;82;21153;-76
2022/08/19 08:20:55;;;;;;;9.83;3.50;;;;;;;25.05;59.05;99291.67;1742784;80;21087;-75
2022/08/19 08:23:24;;;;;;;19.92;3.70;;;;;;;25.11;58.91;99289.70;1751170;81;22375;-75
2022/08/19 08:25:54;;;;;;;9.30;3.62;;;;;;;25.16;58.71;99291.44;1751273;81;21075;-74
2022/08/19 08:28:20;;;;;;;17.20;3.75;;;;;;;25.19;58.67;99293.83;1751126;81;21039;-75
2022/08/19 08:30:47;;;;;;;15.28;3.67;;;;;;;25.24;59.21;99288.50;1751511;81;21199;-75
2022/08/19 08:33:17;;;;;;;8.65;4.03;;;;;;;25.31;59.07;99292.30;1751299;81;21066;-76
2022/08/19 08:35:45;;;;;;;12.85;3.92;;;;;;;25.37;57.81;99295.23;1720397;81;21090;-75
2022/08/19 08:38:12;;;;;;;13.62;4.40;;;;;;;25.44;58.69;99298.16;1751815;81;21051;-75
2022/08/19 08:40:49;;;;;;;16.80;3.70;;;;;;;25.51;58.10;99298.38;1751232;81;21450;-75
2022/08/19 08:43:30;;;;;;;9.50;3.12;;;;;;;25.57;57.38;99301.30;1765265;81;21150;-75
2022/08/19 08:46:05;;;;;;;14.90;3.90;;;;;;;25.55;56.94;99302.45;1751071;81;21526;-75
2022/08/19 08:48:50;;;;;;;13.72;3.42;;;;;;;25.55;57.75;99292.54;1751528;81;21059;-74
2022/08/19 08:51:38;;;;;;;13.80;3.70;;;;;;;25.64;57.79;99292.58;1764414;81;21063;-74
2022/08/19 08:54:07;;;;;;;16.52;3.80;;;;;;;25.67;57.44;99289.58;1751463;81;21117;-75
2022/08/19 08:56:34;;;;;;;19.80;3.83;;;;;;;25.76;57.67;99294.05;1751361;81;21586;-75
2022/08/19 08:59:09;;;;;;;11.88;3.80;;;;;;;25.88;57.69;99295.48;1764918;81;21519;-74
2022/08/19 09:01:38;;;;;;;12.03;3.83;;;;;;;25.92;56.20;99290.63;1764490;81;21008;-75
2022/08/19 09:04:06;;;;;;;12.33;3.72;;;;;;;25.89;56.69;99294.97;1751655;81;21157;-74
2022/08/19 09:07:28;;;;;;;8.98;3.98;;;;;;;25.94;57.44;99286.78;1751239;81;22184;-75
2022/08/19 09:10:09;;;;;;;7.47;3.20;;;;;;;26.05;57.22;99287.04;1764887;81;21165;-75
2022/08/19 09:12:58;;;;;;;19.82;3.72;;;;;;;26.15;56.62;99289.64;1764697;81;21150;-75
2022/08/19 09:15:39;;;;;;;11.20;3.98;;;;;;;26.22;56.88;99285.29;1751643;81;22129;-75
2022/08/19 09:18:06;;;;;;;15.13;4.25;;;;;;;26.30;55.79;99286.69;1764551;81;21047;-75
2022/08/19 09:20:33;;;;;;;11.93;3.80;;;;;;;26.35;55.40;99301.05;1722165;81;21032;-75
2022/08/19 09:22:59;;;;;;;13.88;3.80;;;;;;;26.39;55.98;99302.92;1764548;80;21606;-75
2022/08/19 09:25:26;;;;;;;21.42;4.50;;;;;;;26.49;56.16;99307.21;1751285;81;21141;-75
2022/08/19 09:27:56;;;;;;;27.77;5.20;;;;;;;26.61;55.57;99305.08;1764570;81;21044;-75
2022/08/19 09:30:26;;;;;;;13.43;5.12;;;;;;;26.66;55.33;99312.21;1751601;81;21527;-75
2022/08/19 09:32:53;;;;;;;14.80;4.20;;;;;;;26.70;55.30;99311.38;1751105;81;21083;-75
2022/08/19 09:35:24;;;;;;;12.25;3.90;;;;;;;26.76;55.27;99312.58;1751353;81;21166;-74
2022/08/19 09:37:51;;;;;;;15.10;4.28;;;;;;;26.79;54.65;99309.05;1764514;81;20963;-75
2022/08/19 09:40:18;;;;;;;9.10;3.52;;;;;;;26.85;55.35;99308.91;1751430;81;21606;-75
2022/08/19 09:42:47;;;;;;;20.00;4.22;;;;;;;26.92;54.85;99307.24;1752353;81;21036;-75
2022/08/19 09:45:16;;;;;;;18.95;4.20;;;;;;;26.99;54.67;99305.57;1757197;81;20968;-75
2022/08/19 09:47:43;;;;;;;16.50;4.50;;;;;;;26.95;54.85;99317.72;1749363;82;21159;-75
2022/08/19 09:50:11;;;;;;;13.93;4.33;;;;;;;26.90;54.68;99311.97;1749058;82;21020;-75
2022/08/19 09:52:38;;;;;;;12.25;3.60;;;;;;;26.86;55.17;99310.59;1749116;82;21012;-75
2022/08/19 09:55:07;;;;;;;12.35;3.90;;;;;;;26.93;55.30;99299.47;1756820;81;21495;-75
2022/08/19 09:57:34;;;;;;;17.95;4.12;;;;;;;27.01;55.15;99299.49;1756131;80;21102;-75
2022/08/19 10:00:04;;;;;;;5.78;3.35;;;;;;;27.08;54.98;99297.50;1815351;79;21098;-75
2022/08/19 10:02:32;;;;;;;21.57;3.72;;;;;;;27.14;55.32;99311.70;1814669;79;21041;-75
2022/08/19 10:07:43;;;;;;;;;;;;;;;27.30;54.24;99321.20;1817878;79;20998;-75
2022/08/19 10:10:10;;;;;;;13.68;3.58;;;;;;;27.38;54.27;99317.67;1776222;80;20245;-75
2022/08/19 10:12:37;;;;;;;10.70;3.60;;;;;;;27.45;53.80;99323.27;1776315;80;21131;-75
2022/08/19 10:15:05;;;;;;;11.83;3.40;;;;;;;27.45;53.86;99325.97;1749443;82;21542;-75
2022/08/19 10:17:34;;;;;;;9.73;3.77;;;;;;;27.43;54.01;99324.27;1815169;79;21097;-74
2022/08/19 10:20:04;;;;;;;6.33;3.35;;;;;;;27.40;53.80;99321.05;1815074;79;21062;-75
2022/08/19 10:22:30;;;;;;;8.73;3.08;;;;;;;27.34;54.06;99323.92;1815130;79;21081;-75
2022/08/19 10:24:57;;;;;;;12.45;3.92;;;;;;;27.31;54.85;99327.47;1812543;79;21476;-74
2022/08/19 10:27:23;;;;;;;10.55;3.33;;;;;;;27.24;54.09;99324.55;1815391;79;21040;-75
2022/08/19 10:29:50;;;;;;;8.43;3.10;;;;;;;27.19;54.36;99328.25;1815113;79;21145;-75
2022/08/19 10:32:16;;;;;;;6.03;3.50;;;;;;;27.20;54.40;99331.27;1815465;78;21048;-75
2022/08/19 10:34:43;;;;;;;12.03;3.98;;;;;;;27.18;54.83;99331.44;1815144;78;21566;-74
2022/08/19 10:37:10;;;;;;;10.53;3.72;;;;;;;27.22;55.18;99331.98;1815547;79;21189;-74
2022/08/19 10:39:37;;;;;;;9.90;3.20;;;;;;;27.26;54.67;99333.33;1815023;79;21029;-75
2022/08/19 10:42:07;;;;;;;14.70;3.55;;;;;;;27.24;54.79;99336.70;1815222;79;21059;-75
2022/08/19 10:44:35;;;;;;;14.18;3.92;;;;;;;27.16;54.34;99336.68;1815492;79;21948;-74
2022/08/19 10:47:02;;;;;;;10.55;3.30;;;;;;;27.02;54.78;99341.70;1814976;79;20964;-75
2022/08/19 10:49:28;;;;;;;11.63;3.47;;;;;;;26.90;55.24;99344.36;1815333;79;22325;-76
2022/08/19 10:57:31;;;;;;;11.43;4.35;;;;;;;26.77;55.72;99361.51;1808294;78;21048;-82
2022/08/19 10:59:58;;;;;;;15.80;4.10;;;;;;;26.79;55.56;99363.53;1804558;79;20973;-79
2022/08/19 11:02:25;;;;;;;10.08;3.40;;;;;;;26.78;55.31;99368.58;1804185;79;21643;-82
2022/08/19 11:04:51;;;;;;;15.38;3.77;;;;;;;26.83;55.08;99359.49;1781696;79;21095;-82
2022/08/19 11:07:18;;;;;;;4.42;2.85;;;;;;;26.89;55.40;99361.56;1804245;79;21088;-83
2022/08/19 11:09:47;;;;;;;15.05;3.25;;;;;;;26.95;55.21;99358.22;1804053;79;21465;-81
2022/08/19 11:12:15;;;;;;;10.48;3.25;;;;;;;27.01;55.33;99360.25;1804085;79;20981;-80
2022/08/19 11:14:41;;;;;;;10.08;3.65;;;;;;;27.09;55.49;99359.95;1804279;79;21119;-82
2022/08/19 11:17:07;;;;;;;9.80;2.98;;;;;;;27.11;54.70;99360.12;1804312;79;20970;-82
2022/08/19 11:19:35;;;;;;;15.50;4.17;;;;;;;27.14;55.19;99352.20;1803961;79;21585;-81
2022/08/19 11:22:02;;;;;;;8.33;3.10;;;;;;;27.18;55.26;99348.99;1804037;78;22088;-81
2022/08/19 11:24:29;;;;;;;8.68;3.25;;;;;;;27.21;54.63;99353.23;1804382;79;21013;-80
2022/08/19 11:26:59;;;;;;;10.95;3.85;;;;;;;27.24;55.38;99343.45;1804002;79;21115;-80
2022/08/19 11:29:27;;;;;;;12.18;3.42;;;;;;;27.33;55.26;99347.89;1782667;79;21103;-81
2022/08/19 11:31:54;;;;;;;10.28;3.52;;;;;;;27.45;55.28;99347.06;1804207;79;21037;-83
2022/08/19 11:34:25;;;;;;;8.55;2.90;;;;;;;27.60;54.61;99349.96;1804505;79;21107;-80
2022/08/19 11:36:52;;;;;;;12.78;2.75;;;;;;;27.66;53.87;99358.77;1803964;79;20986;-82
2022/08/19 11:39:21;;;;;;;8.93;2.87;;;;;;;27.60;52.01;99353.53;1804363;79;21091;-80
2022/08/19 11:41:50;;;;;;;9.38;3.20;;;;;;;27.46;51.86;99354.69;1804344;79;21112;-81
2022/08/19 11:44:16;;;;;;;14.40;2.87;;;;;;;27.36;52.45;99352.13;1804348;79;21516;-80
2022/08/19 11:46:47;;;;;;;13.90;4.00;;;;;;;27.28;52.61;99350.20;1804268;79;21894;-81
2022/08/19 11:49:15;;;;;;;9.50;3.08;;;;;;;27.23;52.83;99348.02;1803994;79;21000;-78
2022/08/19 11:51:42;;;;;;;11.30;3.05;;;;;;;27.16;52.96;99351.02;1804339;79;21224;-81
2022/08/19 11:54:10;;;;;;;12.58;3.17;;;;;;;27.13;52.74;99354.55;1804202;79;21056;-79
2022/08/19 11:56:37;;;;;;;15.25;3.47;;;;;;;27.06;53.29;99352.50;1805157;79;21087;-79
2022/08/19 11:59:04;;;;;;;11.88;3.35;;;;;;;27.03;54.00;99354.69;1812678;78;21054;-79
2022/08/19 12:01:31;;;;;;;11.83;3.37;;;;;;;27.06;53.75;99363.30;1790703;80;21585;-79